Time;durP1;ratioP1;P1;durP2;ratioP2;P2;SDS_P1;SDS_P2;PMS_P1;PMS_P2;Temp;Humidity;BMP_temperature;BMP_pressure;BME280_temperature;BME280_humidity;BME280_pressure;Samples;Min_cycle;Max_cycle;Signal;HPM_P1;HPM_P2
2022/10/08 00:00:44;;;;;;;6.10;3.67;;;12.80;99.90;;;;;;5117326;28;20452;-53
2022/10/08 00:03:11;;;;;;;4.37;3.30;;;12.70;99.90;;;;;;5117477;28;20855;-52
2022/10/08 00:05:37;;;;;;;6.60;3.20;;;12.70;99.90;;;;;;5099473;28;20496;-54
2022/10/08 00:08:04;;;;;;;4.77;2.67;;;12.70;99.90;;;;;;5111744;28;20440;-51
2022/10/08 00:10:32;;;;;;;6.33;3.53;;;12.70;99.90;;;;;;5117572;28;20464;-55
2022/10/08 00:12:58;;;;;;;8.67;3.87;;;12.70;99.90;;;;;;5109714;28;20493;-53
2022/10/08 00:15:26;;;;;;;9.10;3.03;;;12.60;99.90;;;;;;5097081;28;20445;-51
2022/10/08 00:17:53;;;;;;;4.80;3.20;;;12.50;99.90;;;;;;5096727;28;20453;-48
2022/10/08 00:20:20;;;;;;;4.17;3.63;;;12.60;99.90;;;;;;5096999;28;20437;-55
2022/10/08 00:22:47;;;;;;;6.93;3.53;;;12.50;99.90;;;;;;5097425;28;20441;-50
2022/10/08 00:25:14;;;;;;;5.30;3.40;;;12.50;99.90;;;;;;5096693;28;20504;-55
2022/10/08 00:27:41;;;;;;;5.17;4.13;;;12.50;99.90;;;;;;5097019;28;20442;-54
2022/10/08 00:30:09;;;;;;;10.40;4.03;;;12.50;99.90;;;;;;5096873;28;20446;-50
2022/10/08 00:32:37;;;;;;;5.43;3.90;;;12.40;99.90;;;;;;5100434;28;20461;-53
2022/10/08 00:35:04;;;;;;;4.77;3.83;;;12.40;99.90;;;;;;5104968;28;20444;-47
2022/10/08 00:37:31;;;;;;;5.43;3.47;;;12.40;99.90;;;;;;5096604;28;20461;-53
2022/10/08 00:39:58;;;;;;;6.87;3.80;;;12.40;99.90;;;;;;5103676;28;20456;-54
2022/10/08 00:42:25;;;;;;;4.67;4.10;;;12.30;99.90;;;;;;5114563;28;20917;-53
2022/10/08 00:44:55;;;;;;;5.83;3.27;;;12.30;99.90;;;;;;5112327;28;20481;-49
2022/10/08 00:47:41;;;;;;;4.77;3.50;;;12.40;99.90;;;;;;5106586;28;20449;-56
2022/10/08 00:50:14;;;;;;;9.97;4.20;;;12.40;99.90;;;;;;5115344;27;20827;-55
2022/10/08 00:52:44;;;;;;;5.57;3.90;;;12.30;99.90;;;;;;5115340;28;20469;-54
2022/10/08 00:55:13;;;;;;;4.93;3.70;;;12.30;99.90;;;;;;5115934;28;20956;-50
2022/10/08 00:57:44;;;;;;;6.40;3.50;;;12.30;99.90;;;;;;5116010;28;20459;-52
2022/10/08 01:00:15;;;;;;;4.37;3.60;;;12.30;99.90;;;;;;5116731;28;20424;-54
2022/10/08 01:02:43;;;;;;;5.57;3.57;;;12.30;99.90;;;;;;5110209;28;20445;-53
2022/10/08 01:05:12;;;;;;;6.37;3.93;;;12.30;99.90;;;;;;5096015;28;20493;-55
2022/10/08 01:07:50;;;;;;;6.50;3.73;;;12.30;99.90;;;;;;5095847;28;20429;-54
2022/10/08 01:10:24;;;;;;;6.90;3.70;;;12.20;99.90;;;;;;5096125;28;20802;-52
2022/10/08 01:13:05;;;;;;;7.10;4.07;;;12.20;99.90;;;;;;5105392;28;20472;-53
2022/10/08 01:15:41;;;;;;;7.13;4.90;;;12.10;99.90;;;;;;5115476;28;20439;-45
2022/10/08 01:18:19;;;;;;;6.23;4.20;;;12.10;99.90;;;;;;5116198;28;20436;-49
2022/10/08 01:20:56;;;;;;;6.50;4.30;;;12.10;99.90;;;;;;5117104;28;20467;-53
2022/10/08 01:23:53;;;;;;;7.87;4.17;;;12.10;99.90;;;;;;5115809;28;20444;-55
2022/10/08 01:26:46;;;;;;;5.27;3.70;;;12.10;99.90;;;;;;5116297;28;20974;-52
2022/10/08 01:29:21;;;;;;;6.40;3.47;;;12.00;99.90;;;;;;5115921;28;20453;-54
2022/10/08 01:31:53;;;;;;;5.20;3.63;;;12.00;99.90;;;;;;5115155;28;20452;-55
2022/10/08 01:34:26;;;;;;;5.20;3.77;;;12.00;99.90;;;;;;5113586;28;20433;-49
2022/10/08 01:36:59;;;;;;;6.90;3.57;;;12.00;99.90;;;;;;5115125;28;20463;-51
2022/10/08 01:39:33;;;;;;;13.10;3.87;;;12.00;99.90;;;;;;5114615;28;20809;-55
2022/10/08 01:42:02;;;;;;;6.80;3.43;;;12.00;99.90;;;;;;5115016;28;20461;-52
2022/10/08 01:44:33;;;;;;;5.43;3.70;;;11.90;99.90;;;;;;5114181;28;20841;-48
2022/10/08 01:47:05;;;;;;;5.80;3.57;;;11.90;99.90;;;;;;5115458;28;20456;-45
2022/10/08 01:49:39;;;;;;;5.90;4.03;;;11.90;99.90;;;;;;5115412;28;20425;-49
2022/10/08 01:52:10;;;;;;;4.90;3.50;;;11.90;99.90;;;;;;5116131;28;20567;-51
2022/10/08 01:54:44;;;;;;;5.23;4.20;;;11.90;99.90;;;;;;5105475;28;20462;-53
2022/10/08 01:57:11;;;;;;;7.57;4.00;;;12.00;99.90;;;;;;5094843;28;20436;-54
2022/10/08 01:59:44;;;;;;;7.67;4.47;;;11.90;99.90;;;;;;5094160;28;20473;-51
2022/10/08 02:02:16;;;;;;;6.83;3.77;;;12.00;99.90;;;;;;5097262;28;20450;-53
2022/10/08 02:04:43;;;;;;;8.00;3.93;;;11.90;99.90;;;;;;5106808;28;20465;-51
2022/10/08 02:07:15;;;;;;;7.30;4.20;;;11.90;99.90;;;;;;5094831;28;20469;-49
2022/10/08 02:09:44;;;;;;;7.07;3.17;;;12.00;99.90;;;;;;5095037;28;20778;-53
2022/10/08 02:12:13;;;;;;;4.00;3.03;;;11.90;99.90;;;;;;5096900;28;20453;-53
2022/10/08 02:14:46;;;;;;;5.23;4.70;;;11.90;99.90;;;;;;5115209;28;20842;-52
2022/10/08 02:17:28;;;;;;;3.80;2.97;;;11.90;99.90;;;;;;5115163;28;20429;-55
2022/10/08 02:19:58;;;;;;;10.33;3.97;;;12.00;99.90;;;;;;5115151;28;20445;-47
2022/10/08 02:22:31;;;;;;;7.20;4.23;;;11.90;99.90;;;;;;5108182;28;20441;-53
2022/10/08 02:25:04;;;;;;;5.73;3.40;;;11.90;99.90;;;;;;5094695;28;20465;-54
2022/10/08 02:27:43;;;;;;;6.50;3.90;;;11.90;99.90;;;;;;5094617;28;20426;-48
2022/10/08 02:30:12;;;;;;;5.20;3.43;;;11.90;99.90;;;;;;5094634;28;20748;-51
2022/10/08 02:32:51;;;;;;;5.23;3.70;;;11.90;99.90;;;;;;5102969;28;20441;-51
2022/10/08 02:35:24;;;;;;;5.30;4.00;;;11.90;99.90;;;;;;5114916;28;20487;-55
2022/10/08 02:37:58;;;;;;;11.50;4.33;;;11.90;99.90;;;;;;5114907;28;20429;-55
2022/10/08 02:40:29;;;;;;;8.37;4.20;;;12.00;99.90;;;;;;5114959;28;20449;-51
2022/10/08 02:43:02;;;;;;;6.60;4.40;;;11.90;99.90;;;;;;5114000;28;20468;-55
2022/10/08 02:45:34;;;;;;;5.00;3.50;;;11.90;99.90;;;;;;5115005;28;20964;-51
2022/10/08 02:48:05;;;;;;;7.33;4.07;;;11.90;99.90;;;;;;5114940;28;20446;-50
2022/10/08 02:50:35;;;;;;;7.20;3.40;;;11.90;99.90;;;;;;5114830;28;20424;-55
2022/10/08 02:53:02;;;;;;;6.70;4.50;;;11.90;99.90;;;;;;5103452;28;20897;-50
2022/10/08 02:55:47;;;;;;;6.00;3.90;;;11.90;99.90;;;;;;5094999;28;20436;-55
2022/10/08 02:58:15;;;;;;;6.10;4.13;;;11.90;99.90;;;;;;5094846;28;20433;-55
2022/10/08 03:00:49;;;;;;;6.90;3.77;;;11.90;99.90;;;;;;5094185;28;20452;-51
2022/10/08 03:03:24;;;;;;;6.93;4.57;;;11.90;99.90;;;;;;5103154;28;20451;-54
2022/10/08 03:05:54;;;;;;;11.83;4.80;;;11.90;99.90;;;;;;5110232;28;20503;-53
2022/10/08 03:08:21;;;;;;;5.27;4.00;;;11.90;99.90;;;;;;5098090;28;20902;-53
2022/10/08 03:10:52;;;;;;;4.03;3.63;;;11.90;99.90;;;;;;5100636;28;20472;-56
2022/10/08 03:13:25;;;;;;;5.67;3.97;;;11.90;99.90;;;;;;5118770;28;20444;-54
2022/10/08 03:15:54;;;;;;;5.43;3.40;;;11.90;99.90;;;;;;5115555;28;20433;-54
2022/10/08 03:18:23;;;;;;;7.17;4.63;;;11.90;99.90;;;;;;5098132;28;20545;-54
2022/10/08 03:20:54;;;;;;;7.20;4.70;;;11.90;99.90;;;;;;5099712;28;20445;-53
2022/10/08 03:23:21;;;;;;;5.13;4.20;;;11.90;99.90;;;;;;5118439;28;20492;-52
2022/10/08 03:25:48;;;;;;;8.93;4.00;;;11.80;99.90;;;;;;5118340;28;20484;-54
2022/10/08 03:28:15;;;;;;;9.80;4.33;;;11.90;99.90;;;;;;5118169;28;20459;-45
2022/10/08 03:30:46;;;;;;;8.43;4.60;;;11.90;99.90;;;;;;5117900;28;20455;-48
2022/10/08 03:33:17;;;;;;;7.33;4.53;;;11.90;99.90;;;;;;5098705;28;20462;-49
2022/10/08 03:35:47;;;;;;;5.20;3.70;;;11.90;99.90;;;;;;5098923;28;20442;-49
2022/10/08 03:38:16;;;;;;;8.40;4.37;;;11.90;99.90;;;;;;5098158;28;21060;-46
2022/10/08 03:40:53;;;;;;;8.27;4.70;;;11.90;99.90;;;;;;5101122;28;20789;-46
2022/10/08 03:43:30;;;;;;;5.57;3.97;;;11.80;99.90;;;;;;5118103;28;20432;-47
2022/10/08 03:45:57;;;;;;;6.83;3.90;;;11.80;99.90;;;;;;5118660;28;20961;-49
2022/10/08 03:48:25;;;;;;;7.90;4.77;;;11.80;99.90;;;;;;5118334;28;20421;-49
2022/10/08 03:50:56;;;;;;;4.60;3.63;;;11.80;99.90;;;;;;5117727;28;20452;-50
2022/10/08 03:53:24;;;;;;;8.53;4.27;;;11.80;99.90;;;;;;5117955;28;20763;-46
2022/10/08 03:55:54;;;;;;;5.50;3.87;;;11.80;99.90;;;;;;5117901;28;20463;-51
2022/10/08 03:58:21;;;;;;;9.07;5.20;;;11.80;99.90;;;;;;5118048;28;20459;-49
2022/10/08 04:00:57;;;;;;;6.33;5.07;;;11.80;99.90;;;;;;5116160;28;20475;-48
2022/10/08 04:03:26;;;;;;;6.30;4.13;;;11.80;99.90;;;;;;5118185;28;20468;-53
2022/10/08 04:05:55;;;;;;;5.80;4.10;;;11.80;99.90;;;;;;5117570;28;20982;-51
2022/10/08 04:08:22;;;;;;;6.70;4.13;;;11.90;99.90;;;;;;5117041;28;20474;-53
2022/10/08 04:10:49;;;;;;;7.57;5.17;;;11.90;99.90;;;;;;5115746;28;20467;-52
2022/10/08 04:13:20;;;;;;;8.10;4.20;;;11.90;99.90;;;;;;5117387;28;20437;-49
2022/10/08 04:15:47;;;;;;;9.93;4.63;;;11.90;99.90;;;;;;5117569;28;20429;-50
2022/10/08 04:18:14;;;;;;;5.00;3.87;;;11.90;99.90;;;;;;5117606;28;20476;-54
2022/10/08 04:20:43;;;;;;;7.30;4.53;;;11.90;99.90;;;;;;5109346;28;20449;-50
2022/10/08 04:23:14;;;;;;;5.50;4.80;;;11.90;99.90;;;;;;5097048;28;20457;-50
2022/10/08 04:25:49;;;;;;;5.57;4.33;;;12.00;99.90;;;;;;5096855;28;20468;-55
2022/10/08 04:28:15;;;;;;;7.00;4.30;;;12.00;99.90;;;;;;5097011;28;20421;-47
2022/10/08 04:30:53;;;;;;;6.27;4.40;;;11.90;99.90;;;;;;5107608;28;20463;-50
2022/10/08 04:33:28;;;;;;;7.00;4.40;;;11.90;99.90;;;;;;5117649;28;20444;-53
2022/10/08 04:35:59;;;;;;;5.20;4.40;;;12.00;99.90;;;;;;5116788;28;20575;-45
2022/10/08 04:38:27;;;;;;;5.07;4.13;;;12.00;99.90;;;;;;5116657;28;20425;-54
2022/10/08 04:41:02;;;;;;;11.70;4.73;;;12.00;99.90;;;;;;5107858;28;20460;-52
2022/10/08 04:43:30;;;;;;;6.47;4.47;;;11.90;99.90;;;;;;5096466;28;20469;-47
2022/10/08 04:46:00;;;;;;;10.37;4.90;;;11.90;99.90;;;;;;5096289;28;20595;-54
2022/10/08 04:48:27;;;;;;;8.27;4.17;;;11.90;99.90;;;;;;5096502;28;20492;-46
2022/10/08 04:50:55;;;;;;;7.90;4.27;;;11.90;99.90;;;;;;5096635;28;20471;-55
2022/10/08 04:53:24;;;;;;;6.17;4.57;;;11.90;99.90;;;;;;5096122;28;20445;-52
2022/10/08 04:55:51;;;;;;;4.80;4.30;;;11.90;99.90;;;;;;5096054;28;20499;-53
2022/10/08 04:58:21;;;;;;;5.53;3.63;;;11.80;99.90;;;;;;5096205;28;20797;-52
2022/10/08 05:00:48;;;;;;;8.63;5.17;;;11.80;99.90;;;;;;5103530;28;20871;-51
2022/10/08 05:03:15;;;;;;;5.17;4.03;;;11.80;99.90;;;;;;5116821;28;20749;-48
2022/10/08 05:05:43;;;;;;;5.80;3.93;;;11.80;99.90;;;;;;5116400;28;20483;-51
2022/10/08 05:08:12;;;;;;;8.43;4.67;;;11.80;99.90;;;;;;5116358;28;20453;-53
2022/10/08 05:10:48;;;;;;;6.83;4.80;;;11.80;99.90;;;;;;5110430;28;20442;-48
2022/10/08 05:13:14;;;;;;;7.00;4.63;;;11.80;99.90;;;;;;5096052;28;20862;-53
2022/10/08 05:15:41;;;;;;;10.23;4.53;;;11.70;99.90;;;;;;5095880;28;20525;-50
2022/10/08 05:18:08;;;;;;;4.53;4.03;;;11.80;99.90;;;;;;5096070;28;20447;-53
2022/10/08 05:20:35;;;;;;;5.07;3.70;;;11.70;99.90;;;;;;5100143;28;20447;-54
2022/10/08 05:23:02;;;;;;;6.70;3.80;;;11.70;99.90;;;;;;5116268;28;20924;-53
2022/10/08 05:25:31;;;;;;;5.30;3.57;;;11.70;99.90;;;;;;5115974;28;20457;-54
2022/10/08 05:28:03;;;;;;;7.30;4.40;;;11.70;99.90;;;;;;5115315;28;20866;-48
2022/10/08 05:30:29;;;;;;;4.90;4.10;;;11.50;99.90;;;;;;5115440;28;20460;-53
2022/10/08 05:33:02;;;;;;;8.73;4.07;;;11.70;99.90;;;;;;5116354;28;20460;-54
2022/10/08 05:35:29;;;;;;;10.10;4.77;;;11.70;99.90;;;;;;5116291;28;20455;-51
2022/10/08 05:37:56;;;;;;;5.60;4.40;;;11.80;99.90;;;;;;5116003;28;20445;-55
2022/10/08 05:40:23;;;;;;;6.73;4.20;;;11.80;99.90;;;;;;5113867;28;20441;-52
2022/10/08 05:42:49;;;;;;;10.13;4.30;;;11.80;99.90;;;;;;5095379;28;20468;-52
2022/10/08 05:45:18;;;;;;;6.63;4.47;;;11.80;99.90;;;;;;5095377;28;20469;-53
2022/10/08 05:47:47;;;;;;;6.93;5.00;;;11.80;99.90;;;;;;5094835;28;20481;-49
2022/10/08 05:50:14;;;;;;;6.10;4.80;;;11.80;99.90;;;;;;5095350;28;20914;-52
2022/10/08 05:52:40;;;;;;;5.97;5.00;;;11.80;99.90;;;;;;5095266;28;20465;-53
2022/10/08 05:55:08;;;;;;;7.47;4.70;;;11.80;99.90;;;;;;5095201;28;20460;-55
2022/10/08 05:57:35;;;;;;;9.93;4.67;;;11.90;99.90;;;;;;5095275;28;20434;-55
2022/10/08 06:00:01;;;;;;;7.80;4.70;;;11.90;99.90;;;;;;5094852;28;20464;-55
2022/10/08 06:02:30;;;;;;;6.77;4.63;;;11.90;99.90;;;;;;5113622;28;20448;-53
2022/10/08 06:04:57;;;;;;;6.57;4.60;;;11.90;99.90;;;;;;5115106;28;20444;-49
2022/10/08 06:07:24;;;;;;;6.90;6.20;;;11.90;99.90;;;;;;5115114;28;20472;-50
2022/10/08 06:09:51;;;;;;;5.97;3.93;;;11.90;99.90;;;;;;5115439;28;20472;-51
2022/10/08 06:12:17;;;;;;;7.03;4.60;;;11.90;99.90;;;;;;5096048;28;20537;-54
2022/10/08 06:14:44;;;;;;;5.63;4.10;;;11.90;99.90;;;;;;5094985;28;20445;-50
2022/10/08 06:17:11;;;;;;;5.17;3.57;;;11.80;99.90;;;;;;5095001;28;20798;-54
2022/10/08 06:19:39;;;;;;;6.60;4.97;;;11.80;99.90;;;;;;5094475;28;20964;-54
2022/10/08 06:22:06;;;;;;;6.63;4.87;;;11.80;99.90;;;;;;5111693;28;21085;-52
2022/10/08 06:24:36;;;;;;;6.27;4.43;;;11.80;99.90;;;;;;5115086;28;20470;-52
2022/10/08 06:27:02;;;;;;;11.33;4.50;;;11.80;99.90;;;;;;5114977;28;20472;-52
2022/10/08 06:29:29;;;;;;;5.83;5.13;;;11.80;99.90;;;;;;5115231;28;20445;-53
2022/10/08 06:31:56;;;;;;;8.80;5.60;;;11.90;99.90;;;;;;5096710;28;20473;-52
2022/10/08 06:34:23;;;;;;;5.67;4.33;;;11.90;99.90;;;;;;5094837;28;20430;-46
2022/10/08 06:36:51;;;;;;;6.90;4.60;;;11.90;99.90;;;;;;5103716;28;20464;-53
2022/10/08 06:39:18;;;;;;;12.10;4.70;;;11.90;99.90;;;;;;5095444;28;20554;-53
2022/10/08 06:41:45;;;;;;;6.70;4.60;;;11.90;99.90;;;;;;5094582;28;20453;-49
2022/10/08 06:44:14;;;;;;;12.93;4.73;;;11.90;99.90;;;;;;5112840;28;20469;-51
2022/10/08 06:46:41;;;;;;;9.50;5.60;;;11.90;99.90;;;;;;5114810;28;20494;-52
2022/10/08 06:49:07;;;;;;;7.10;4.50;;;11.90;99.90;;;;;;5114950;28;20441;-54
2022/10/08 06:51:34;;;;;;;6.40;4.10;;;11.90;99.90;;;;;;5115559;28;20799;-51
2022/10/08 06:54:03;;;;;;;8.23;4.47;;;11.90;99.90;;;;;;5096036;28;20446;-54
2022/10/08 06:56:32;;;;;;;7.40;4.00;;;11.90;99.90;;;;;;5094485;28;20528;-55
2022/10/08 06:58:59;;;;;;;10.50;6.00;;;11.90;99.90;;;;;;5094472;28;20465;-54
2022/10/08 07:01:28;;;;;;;13.00;5.43;;;11.90;99.90;;;;;;5094451;28;20453;-51
2022/10/08 07:03:57;;;;;;;7.13;4.93;;;12.00;99.90;;;;;;5094337;28;20548;-54
2022/10/08 07:06:24;;;;;;;8.87;5.40;;;12.00;99.90;;;;;;5099658;28;20477;-55
2022/10/08 07:08:53;;;;;;;6.67;4.70;;;12.10;99.90;;;;;;5094289;28;20441;-56
2022/10/08 07:11:23;;;;;;;6.90;4.10;;;12.10;99.90;;;;;;5094196;28;20477;-55
2022/10/08 07:13:50;;;;;;;7.27;4.30;;;12.20;99.90;;;;;;5095501;28;20767;-54
2022/10/08 07:16:19;;;;;;;7.77;3.80;;;12.30;99.90;;;;;;5094371;28;20774;-53
2022/10/08 07:18:47;;;;;;;6.00;4.27;;;12.30;99.90;;;;;;5094808;28;20496;-47
2022/10/08 07:21:15;;;;;;;11.07;4.87;;;12.30;99.90;;;;;;5094932;28;20453;-50
2022/10/08 07:23:42;;;;;;;5.37;4.77;;;12.30;99.90;;;;;;5094865;28;20505;-52
2022/10/08 07:26:13;;;;;;;6.80;4.90;;;12.30;99.90;;;;;;5094871;28;20452;-51
2022/10/08 07:28:44;;;;;;;5.20;4.00;;;12.30;99.90;;;;;;5095167;28;20460;-49
2022/10/08 07:31:14;;;;;;;6.60;4.20;;;12.30;99.90;;;;;;5095303;28;20775;-48
2022/10/08 07:33:41;;;;;;;10.27;5.17;;;12.40;99.90;;;;;;5093688;28;20442;-44
2022/10/08 07:36:10;;;;;;;8.60;4.40;;;12.90;99.90;;;;;;5094057;28;20823;-45
2022/10/08 07:38:37;;;;;;;6.63;4.40;;;12.40;99.90;;;;;;5093826;28;20460;-47
2022/10/08 07:41:05;;;;;;;8.10;4.20;;;12.50;99.90;;;;;;5095441;28;20874;-49
2022/10/08 07:43:31;;;;;;;8.17;3.90;;;12.60;99.90;;;;;;5094272;28;20469;-55
2022/10/08 07:45:59;;;;;;;14.13;5.60;;;12.80;99.90;;;;;;5096649;28;20456;-52
2022/10/08 07:48:28;;;;;;;9.77;3.23;;;12.90;99.90;;;;;;5094100;28;20422;-53
2022/10/08 07:50:55;;;;;;;7.67;4.50;;;13.00;99.90;;;;;;5096082;28;20463;-53
2022/10/08 07:53:22;;;;;;;8.07;3.90;;;13.20;99.90;;;;;;5117231;28;20466;-50
2022/10/08 07:55:48;;;;;;;5.83;4.10;;;13.20;99.90;;;;;;5117641;28;20786;-50
2022/10/08 07:58:15;;;;;;;11.37;3.40;;;13.20;99.90;;;;;;5117550;28;20448;-50
2022/10/08 08:00:42;;;;;;;4.20;3.30;;;13.30;99.90;;;;;;5117591;28;20461;-55
2022/10/08 08:03:13;;;;;;;3.97;3.57;;;13.40;99.90;;;;;;5111572;28;20460;-54
2022/10/08 08:05:40;;;;;;;3.40;3.07;;;13.40;99.90;;;;;;5117163;28;20464;-52
2022/10/08 08:08:07;;;;;;;4.33;3.07;;;13.50;99.90;;;;;;5113125;28;20472;-52
2022/10/08 08:10:33;;;;;;;4.73;2.63;;;13.50;99.90;;;;;;5101182;28;20449;-53
2022/10/08 08:13:00;;;;;;;5.03;3.10;;;13.60;99.90;;;;;;5115961;28;20810;-53
2022/10/08 08:15:27;;;;;;;9.40;4.37;;;13.70;99.90;;;;;;5102656;28;20457;-54
2022/10/08 08:17:54;;;;;;;11.90;3.57;;;13.80;99.90;;;;;;5106220;28;20476;-53
2022/10/08 08:20:22;;;;;;;9.00;3.53;;;13.80;99.90;;;;;;5111918;28;20453;-55
2022/10/08 08:22:49;;;;;;;4.53;3.10;;;14.00;99.90;;;;;;5108199;28;20440;-51
2022/10/08 08:25:15;;;;;;;4.43;3.40;;;14.10;99.90;;;;;;5113889;28;20437;-54
2022/10/08 08:27:42;;;;;;;4.10;3.17;;;14.20;99.90;;;;;;5118943;28;20503;-55
2022/10/08 08:30:10;;;;;;;3.00;2.23;;;14.30;99.90;;;;;;5118070;28;20479;-51
2022/10/08 08:32:37;;;;;;;6.10;2.33;;;14.40;99.90;;;;;;5117990;28;20782;-54
2022/10/08 08:35:04;;;;;;;3.70;3.07;;;14.60;99.90;;;;;;5105948;28;20476;-49
2022/10/08 08:37:32;;;;;;;4.50;2.33;;;15.00;99.90;;;;;;5097157;28;20442;-52
2022/10/08 08:39:59;;;;;;;4.13;3.00;;;15.70;99.90;;;;;;5096762;28;20914;-55
2022/10/08 08:42:40;;;;;;;5.83;2.20;;;16.60;99.90;;;;;;5096967;28;20441;-54
2022/10/08 08:45:22;;;;;;;7.90;2.80;;;17.60;99.90;;;;;;5102271;28;20453;-55
2022/10/08 08:47:56;;;;;;;4.80;2.03;;;18.60;99.90;;;;;;5112899;28;20480;-55
2022/10/08 08:50:26;;;;;;;3.93;1.80;;;19.40;99.90;;;;;;5103963;28;20433;-51
2022/10/08 08:52:55;;;;;;;5.70;2.47;;;20.10;99.90;;;;;;5096362;28;20488;-52
2022/10/08 08:55:33;;;;;;;6.33;2.60;;;20.40;99.90;;;;;;5096099;28;20541;-52
2022/10/08 08:58:08;;;;;;;3.30;2.43;;;20.80;99.90;;;;;;5096376;28;20467;-48
2022/10/08 09:00:39;;;;;;;4.10;2.33;;;21.00;99.90;;;;;;5096008;28;20432;-53
2022/10/08 09:03:14;;;;;;;4.20;1.97;;;20.80;99.90;;;;;;5103321;28;20461;-54
2022/10/08 09:05:44;;;;;;;4.23;2.37;;;20.90;99.90;;;;;;5096234;28;20885;-52
2022/10/08 09:08:17;;;;;;;7.63;2.20;;;20.50;99.90;;;;;;5106767;28;20487;-49
2022/10/08 09:10:48;;;;;;;5.80;4.20;;;19.80;99.90;;;;;;5115910;28;20449;-51
2022/10/08 09:13:19;;;;;;;9.47;4.23;;;19.20;99.90;;;;;;5100444;28;20778;-49
2022/10/08 09:15:46;;;;;;;6.70;2.27;;;18.80;99.90;;;;;;5095971;28;20588;-51
2022/10/08 09:18:15;;;;;;;3.33;1.73;;;18.50;99.90;;;;;;5099232;28;20437;-52
2022/10/08 09:20:42;;;;;;;4.23;2.30;;;18.10;99.90;;;;;;5112114;28;20465;-49
2022/10/08 09:23:16;;;;;;;4.00;2.20;;;17.80;99.90;;;;;;5113765;28;20440;-54
2022/10/08 09:25:47;;;;;;;8.10;3.07;;;18.00;99.90;;;;;;5096305;28;20425;-54
2022/10/08 09:28:40;;;;;;;4.47;2.47;;;18.70;99.90;;;;;;5095419;28;20837;-56
2022/10/08 09:31:26;;;;;;;6.20;1.87;;;19.50;99.90;;;;;;5095545;28;20821;-54
2022/10/08 09:33:56;;;;;;;4.23;2.30;;;20.30;99.90;;;;;;5106606;28;20468;-53
2022/10/08 09:36:38;;;;;;;4.40;2.03;;;20.40;99.90;;;;;;5097264;28;20454;-51
2022/10/08 09:39:07;;;;;;;8.53;2.90;;;20.20;99.90;;;;;;5095303;28;20448;-52
2022/10/08 09:41:33;;;;;;;5.00;2.30;;;20.40;99.90;;;;;;5095393;28;20436;-49
2022/10/08 09:44:20;;;;;;;4.50;2.57;;;20.40;99.90;;;;;;5095481;28;20457;-53
2022/10/08 09:46:48;;;;;;;4.13;2.20;;;20.30;99.90;;;;;;5095242;28;20484;-53
2022/10/08 09:49:27;;;;;;;6.93;2.23;;;19.90;99.90;;;;;;5097362;28;20441;-53
2022/10/08 09:51:57;;;;;;;3.90;1.83;;;19.50;99.90;;;;;;5115287;28;20551;-54
2022/10/08 09:54:27;;;;;;;7.90;2.53;;;19.20;99.90;;;;;;5115767;28;20436;-55
2022/10/08 09:56:57;;;;;;;8.50;2.40;;;19.00;99.90;;;;;;5109623;28;21018;-49
2022/10/08 09:59:28;;;;;;;5.90;2.40;;;18.70;99.90;;;;;;5106182;28;20460;-51
2022/10/08 10:01:55;;;;;;;5.43;2.03;;;18.30;99.90;;;;;;5115509;28;20561;-47
2022/10/08 10:04:31;;;;;;;10.33;3.90;;;18.00;99.90;;;;;;5115832;28;20464;-56
2022/10/08 10:06:58;;;;;;;10.17;6.10;;;17.90;99.90;;;;;;5097683;28;20441;-52
2022/10/08 10:09:33;;;;;;;6.53;3.47;;;17.80;99.90;;;;;;5101477;28;20436;-53
2022/10/08 10:12:06;;;;;;;5.97;3.83;;;17.70;99.90;;;;;;5115746;28;20428;-47
2022/10/08 10:14:42;;;;;;;2.73;2.20;;;17.60;99.90;;;;;;5114653;28;20441;-50
2022/10/08 10:17:15;;;;;;;7.67;3.47;;;17.60;99.90;;;;;;5115112;28;20464;-52
2022/10/08 10:19:47;;;;;;;15.17;9.10;;;17.70;99.90;;;;;;5095584;28;20442;-50
2022/10/08 10:22:19;;;;;;;9.30;3.97;;;17.80;99.90;;;;;;5111382;28;20463;-50
2022/10/08 10:24:52;;;;;;;7.70;3.17;;;18.30;99.90;;;;;;5116193;28;20423;-49
2022/10/08 10:27:25;;;;;;;8.83;3.20;;;18.50;99.90;;;;;;5116978;28;20471;-49
2022/10/08 10:30:02;;;;;;;8.50;3.60;;;18.50;99.90;;;;;;5115298;28;20465;-51
2022/10/08 10:32:32;;;;;;;6.63;3.10;;;18.30;99.90;;;;;;5115201;28;20439;-50
2022/10/08 10:35:06;;;;;;;11.20;2.50;;;18.00;99.90;;;;;;5115068;28;20428;-51
2022/10/08 10:37:38;;;;;;;3.90;2.40;;;17.90;99.90;;;;;;5115154;28;20437;-52
2022/10/08 10:40:39;;;;;;;7.43;2.30;;;17.90;99.90;;;;;;5101603;28;20507;-54
2022/10/08 10:43:17;;;;;;;5.50;2.60;;;17.70;99.90;;;;;;5116382;28;20433;-53
2022/10/08 10:45:51;;;;;;;6.43;3.10;;;17.40;99.90;;;;;;5099505;28;20438;-50
2022/10/08 10:48:18;;;;;;;5.20;2.50;;;17.20;99.90;;;;;;5094526;28;20495;-52
2022/10/08 10:51:00;;;;;;;9.23;2.40;;;17.10;99.90;;;;;;5094521;28;20453;-47
2022/10/08 10:53:36;;;;;;;2.87;2.63;;;16.90;99.90;;;;;;5095093;28;20429;-52
2022/10/08 10:56:11;;;;;;;4.13;2.13;;;16.60;99.90;;;;;;5097065;28;20514;-55
2022/10/08 10:59:01;;;;;;;6.00;2.80;;;16.50;99.90;;;;;;5116575;28;20432;-47
2022/10/08 11:01:39;;;;;;;5.50;2.20;;;16.40;99.90;;;;;;5107693;28;20469;-51
2022/10/08 11:04:14;;;;;;;12.97;2.80;;;16.30;99.90;;;;;;5096725;28;20421;-53
2022/10/08 11:07:01;;;;;;;4.00;1.83;;;16.30;99.90;;;;;;5096497;28;20473;-44
2022/10/08 11:09:37;;;;;;;6.30;2.60;;;16.20;99.90;;;;;;5096188;28;20445;-53
2022/10/08 11:12:17;;;;;;;6.10;4.20;;;16.20;99.90;;;;;;5106276;28;20428;-46
2022/10/08 11:14:55;;;;;;;3.63;2.60;;;16.10;99.90;;;;;;5116631;28;20416;-53
2022/10/08 11:17:39;;;;;;;5.60;3.37;;;16.10;99.90;;;;;;5112027;28;20441;-55
2022/10/08 11:20:24;;;;;;;4.00;2.93;;;16.10;99.90;;;;;;5107762;28;20429;-51
2022/10/08 11:23:00;;;;;;;3.40;2.37;;;16.00;99.90;;;;;;5106776;28;20421;-43
2022/10/08 11:25:35;;;;;;;6.90;3.27;;;15.90;99.90;;;;;;5116764;28;20455;-51
2022/10/08 11:28:16;;;;;;;5.80;3.13;;;15.90;99.90;;;;;;5123257;28;20470;-53
2022/10/08 11:30:52;;;;;;;5.03;2.63;;;15.90;99.90;;;;;;5116225;28;20447;-51
2022/10/08 11:33:21;;;;;;;3.27;2.20;;;15.80;99.90;;;;;;5102885;28;20437;-50
2022/10/08 11:35:57;;;;;;;3.53;3.13;;;15.90;99.90;;;;;;5106318;28;20471;-51
2022/10/08 11:38:31;;;;;;;6.93;3.67;;;15.70;99.90;;;;;;5102480;28;20457;-51
2022/10/08 11:41:10;;;;;;;7.30;2.90;;;15.60;99.90;;;;;;5099747;28;20449;-52
2022/10/08 11:43:43;;;;;;;11.17;3.30;;;15.50;99.90;;;;;;5098540;28;20448;-52
2022/10/08 11:46:21;;;;;;;7.60;3.40;;;15.30;99.90;;;;;;5111474;28;20920;-52
2022/10/08 11:48:50;;;;;;;7.80;3.70;;;15.20;99.90;;;;;;5100133;28;20487;-54
2022/10/08 11:51:32;;;;;;;6.80;4.10;;;15.00;99.90;;;;;;5107946;28;20476;-53
2022/10/08 11:54:04;;;;;;;5.57;4.07;;;14.70;99.90;;;;;;5121093;28;20454;-51
2022/10/08 11:56:33;;;;;;;6.70;3.90;;;14.60;99.90;;;;;;5120651;28;20468;-52
2022/10/08 11:59:05;;;;;;;9.17;3.40;;;14.50;99.90;;;;;;5120864;28;20452;-48
2022/10/08 12:01:32;;;;;;;5.87;5.10;;;14.50;99.90;;;;;;5103856;28;20754;-48
2022/10/08 12:04:04;;;;;;;5.87;3.80;;;14.50;99.90;;;;;;5114326;28;20459;-52
2022/10/08 12:06:34;;;;;;;7.43;4.10;;;14.50;99.90;;;;;;5109874;28;20432;-51
2022/10/08 12:09:02;;;;;;;8.70;5.03;;;14.50;99.90;;;;;;5110249;28;20579;-51
2022/10/08 12:11:49;;;;;;;7.20;4.87;;;14.60;99.90;;;;;;5109369;28;20915;-53
2022/10/08 12:14:41;;;;;;;6.87;4.70;;;14.60;99.90;;;;;;5120074;28;20479;-51
2022/10/08 12:17:10;;;;;;;12.00;4.70;;;14.60;99.90;;;;;;5115657;27;20917;-51
2022/10/08 12:20:01;;;;;;;39.67;5.00;;;14.70;99.90;;;;;;5117803;28;20436;-43
2022/10/08 12:22:41;;;;;;;8.40;4.07;;;14.90;99.90;;;;;;5118060;28;20436;-52
2022/10/08 12:25:34;;;;;;;7.83;6.10;;;15.00;99.90;;;;;;5114648;28;20444;-51
2022/10/08 12:28:53;;;;;;;7.80;4.30;;;15.00;99.90;;;;;;5117428;28;20478;-52
2022/10/08 12:31:30;;;;;;;6.20;4.07;;;15.10;99.90;;;;;;5053428;28;20521;-46
2022/10/08 12:34:11;;;;;;;5.37;3.90;;;15.20;99.90;;;;;;5055136;28;20477;-52
2022/10/08 12:36:50;;;;;;;6.40;4.13;;;15.20;99.90;;;;;;5080040;28;20453;-53
2022/10/08 12:39:26;;;;;;;12.00;4.60;;;15.40;99.90;;;;;;5110597;28;20465;-53
2022/10/08 12:42:03;;;;;;;12.33;4.73;;;15.40;99.90;;;;;;5108528;28;20775;-47
2022/10/08 12:44:54;;;;;;;4.10;3.57;;;15.50;99.90;;;;;;5116499;28;20475;-51
2022/10/08 12:47:30;;;;;;;9.30;3.80;;;15.60;99.90;;;;;;5098405;28;20468;-53
2022/10/08 12:50:02;;;;;;;5.37;3.77;;;15.70;99.90;;;;;;5116979;28;20428;-52
2022/10/08 12:52:34;;;;;;;10.43;4.50;;;15.70;99.90;;;;;;5099606;28;20757;-49
2022/10/08 12:55:02;;;;;;;8.70;3.30;;;15.70;99.90;;;;;;5097639;28;20929;-55
2022/10/08 12:57:33;;;;;;;7.37;3.13;;;15.90;99.90;;;;;;5117019;28;20468;-47
2022/10/08 13:00:05;;;;;;;9.23;3.67;;;16.00;99.90;;;;;;5111593;28;20437;-51
2022/10/08 13:02:36;;;;;;;7.80;3.10;;;16.10;99.90;;;;;;5108648;28;20437;-51
2022/10/08 13:05:04;;;;;;;4.10;2.13;;;16.00;99.90;;;;;;5114645;28;20452;-50
2022/10/08 13:07:33;;;;;;;6.97;2.43;;;16.00;99.90;;;;;;5111903;28;20445;-54